createdAt,value
2022-10-18T00:01:35.181Z,79.05
2022-10-18T00:06:30.471Z,79.11
2022-10-18T00:11:25.857Z,79.15
2022-10-18T00:16:20.740Z,79.18
2022-10-18T00:21:18.651Z,79.20
2022-10-18T00:26:17.124Z,79.11
2022-10-18T00:31:19.390Z,79.10
2022-10-18T00:36:14.975Z,79.11
2022-10-18T00:41:14.959Z,79.10
2022-10-18T00:46:09.925Z,79.11
2022-10-18T00:51:05.430Z,79.11
2022-10-18T00:56:00.396Z,79.14
2022-10-18T01:00:55.367Z,79.25
2022-10-18T01:05:50.985Z,79.32
2022-10-18T01:11:12.780Z,79.37
2022-10-18T01:16:19.853Z,79.32
2022-10-18T01:21:43.608Z,79.33
2022-10-18T01:27:19.800Z,79.31
2022-10-18T01:32:21.663Z,79.18
2022-10-18T01:37:22.001Z,79.04
2022-10-18T01:42:21.881Z,78.92
2022-10-18T01:47:17.935Z,78.71
2022-10-18T01:52:15.817Z,78.51
2022-10-18T01:57:22.077Z,78.20
2022-10-18T02:02:32.945Z,77.93
2022-10-18T02:07:36.777Z,77.61
2022-10-18T02:12:34.476Z,77.33
2022-10-18T02:17:32.202Z,76.83
2022-10-18T02:22:32.608Z,76.40
2022-10-18T02:27:28.661Z,75.86
2022-10-18T02:32:34.232Z,75.21
2022-10-18T02:37:36.956Z,74.71
2022-10-18T02:42:38.816Z,73.85
2022-10-18T02:47:33.959Z,73.18
2022-10-18T02:52:29.431Z,72.46
2022-10-18T02:57:24.830Z,71.92
2022-10-18T03:02:19.880Z,71.14
2022-10-18T03:07:15.386Z,70.61
2022-10-18T03:12:10.501Z,70.31
2022-10-18T03:17:05.618Z,70.07
2022-10-18T03:22:00.730Z,69.89
2022-10-18T03:26:55.934Z,69.79
2022-10-18T03:31:50.757Z,69.53
2022-10-18T03:36:46.331Z,69.24
2022-10-18T03:41:41.512Z,69.07
2022-10-18T03:46:36.648Z,68.72
2022-10-18T03:51:31.488Z,68.45
2022-10-18T03:56:26.741Z,68.33
2022-10-18T04:01:21.850Z,68.26
2022-10-18T04:06:16.967Z,68.04
2022-10-18T04:11:12.244Z,67.93
2022-10-18T04:16:08.272Z,67.74
2022-10-18T04:21:03.772Z,67.62
2022-10-18T04:25:58.779Z,67.50
2022-10-18T04:30:54.960Z,67.53
2022-10-18T04:35:54.008Z,67.57
2022-10-18T04:40:49.524Z,67.57
2022-10-18T04:45:47.526Z,67.54
2022-10-18T04:50:42.490Z,67.60
2022-10-18T04:55:45.056Z,67.65
2022-10-18T05:00:40.533Z,67.76
2022-10-18T05:05:49.897Z,67.85
2022-10-18T05:18:37.564Z,68.15
2022-10-18T05:23:32.386Z,68.25
2022-10-18T05:28:39.719Z,68.31
2022-10-18T05:33:36.559Z,68.40
2022-10-18T05:38:31.974Z,68.42
2022-10-18T05:43:29.708Z,68.49
2022-10-18T05:48:25.041Z,68.51
2022-10-18T05:53:37.025Z,68.57
2022-10-18T05:58:32.274Z,68.60
2022-10-18T06:03:29.907Z,68.60
2022-10-18T06:08:24.822Z,68.54
2022-10-18T06:13:19.763Z,68.53
2022-10-18T06:18:14.541Z,68.46
2022-10-18T06:23:09.760Z,68.32
2022-10-18T06:28:09.014Z,68.26
2022-10-18T06:34:46.618Z,68.14
2022-10-18T06:39:41.546Z,68.07
2022-10-18T06:44:37.033Z,68.01
2022-10-18T06:49:31.501Z,67.83
2022-10-18T06:54:27.000Z,67.77
2022-10-18T06:59:23.611Z,67.58
2022-10-18T07:04:21.231Z,67.55
2022-10-18T07:09:16.048Z,67.33
2022-10-18T07:14:15.344Z,67.11
2022-10-18T07:19:11.617Z,67.17
2022-10-18T07:24:08.008Z,67.04
2022-10-18T07:29:08.273Z,66.82
2022-10-18T07:34:06.366Z,66.83
2022-10-18T07:39:01.352Z,66.70
2022-10-18T07:43:56.746Z,66.57
2022-10-18T07:48:52.060Z,66.69
2022-10-18T07:53:48.229Z,66.61
2022-10-18T07:58:44.185Z,66.44
2022-10-18T08:03:40.702Z,66.09
2022-10-18T08:08:36.274Z,66.14
2022-10-18T08:13:31.379Z,66.13
2022-10-18T08:18:26.090Z,66.00
2022-10-18T08:23:21.274Z,66.01
2022-10-18T08:28:16.920Z,65.89
2022-10-18T08:33:12.656Z,65.96
2022-10-18T08:38:15.146Z,65.84
2022-10-18T08:43:26.664Z,65.71
2022-10-18T08:48:30.397Z,65.10
2022-10-18T08:53:36.151Z,65.01
2022-10-18T08:58:43.085Z,64.38
2022-10-18T09:04:04.956Z,63.76
2022-10-18T09:09:19.939Z,63.63
2022-10-18T09:14:41.973Z,63.16
2022-10-18T09:19:58.231Z,62.76
2022-10-18T09:25:02.790Z,62.71
2022-10-18T09:30:15.303Z,62.76
2022-10-18T09:35:20.189Z,62.92
2022-10-18T09:40:20.797Z,63.01
2022-10-18T09:45:27.611Z,62.94
2022-10-18T09:50:32.592Z,62.85
2022-10-18T09:55:36.450Z,62.75
2022-10-18T10:00:39.186Z,62.47
2022-10-18T10:05:34.492Z,61.69
2022-10-18T10:10:31.991Z,61.35
2022-10-18T10:15:33.045Z,61.18
2022-10-18T10:20:42.019Z,60.96
2022-10-18T10:25:41.583Z,60.53
2022-10-18T10:30:38.608Z,59.37
2022-10-18T10:35:53.858Z,58.51
2022-10-18T10:40:51.238Z,58.40
2022-10-18T10:46:05.701Z,58.33
2022-10-18T10:51:07.217Z,58.22
2022-10-18T10:56:04.241Z,58.49
2022-10-18T11:01:16.693Z,57.69
2022-10-18T11:06:43.147Z,56.76
2022-10-18T11:11:56.980Z,56.78
2022-10-18T11:17:08.175Z,56.65
2022-10-18T11:22:12.173Z,56.88
2022-10-18T11:27:19.590Z,57.32
2022-10-18T11:32:28.032Z,57.63
2022-10-18T11:37:52.895Z,57.97
2022-10-18T11:42:57.822Z,58.34
2022-10-18T11:48:04.596Z,58.19
2022-10-18T11:53:17.428Z,58.46
2022-10-18T11:58:36.999Z,58.60
2022-10-18T12:03:54.421Z,57.15
2022-10-18T12:08:56.965Z,57.44
2022-10-18T12:13:57.094Z,57.79
2022-10-18T12:18:58.749Z,58.52
2022-10-18T12:23:59.644Z,58.90
2022-10-18T12:29:06.389Z,59.42
2022-10-18T12:34:17.387Z,59.82
2022-10-18T12:39:29.109Z,60.17
2022-10-18T12:44:35.741Z,60.63
2022-10-18T12:49:35.021Z,61.19
2022-10-18T12:54:34.083Z,61.53
2022-10-18T12:59:53.361Z,61.65
2022-10-18T13:04:49.108Z,62.09
2022-10-18T13:10:23.264Z,62.44
2022-10-18T13:15:41.318Z,63.01
2022-10-18T13:20:50.497Z,63.21
2022-10-18T13:26:00.729Z,63.22
2022-10-18T13:31:12.952Z,63.56
2022-10-18T13:36:23.672Z,63.98
2022-10-18T13:46:20.228Z,64.52
2022-10-18T13:51:47.303Z,64.96
2022-10-18T13:57:05.742Z,65.52
2022-10-18T14:02:58.469Z,65.92
2022-10-18T14:08:08.089Z,66.07
2022-10-18T14:13:15.826Z,66.18
2022-10-18T14:18:19.972Z,66.37
2022-10-18T14:23:20.394Z,66.73
2022-10-18T14:28:18.455Z,67.01
2022-10-18T14:33:58.021Z,67.29
2022-10-18T14:38:57.352Z,67.69
2022-10-18T14:44:09.323Z,68.43
2022-10-18T14:49:10.754Z,69.29
2022-10-18T14:54:10.519Z,70.18
2022-10-18T14:59:15.509Z,70.71
2022-10-18T15:04:13.495Z,70.79
2022-10-18T15:09:11.858Z,70.96
2022-10-18T15:14:13.787Z,71.29
2022-10-18T15:19:30.761Z,71.68
2022-10-18T15:24:34.762Z,72.51
2022-10-18T15:29:35.811Z,73.35
2022-10-18T15:34:32.255Z,74.06
2022-10-18T15:39:31.137Z,74.65
2022-10-18T15:44:34.261Z,75.35
2022-10-18T15:49:55.786Z,76.07
2022-10-18T15:54:53.191Z,77.29
2022-10-18T15:59:57.953Z,77.97
2022-10-18T16:04:53.661Z,78.53
2022-10-18T16:09:49.108Z,79.01
2022-10-18T16:14:51.122Z,79.53
2022-10-18T16:19:46.166Z,80.08
2022-10-18T16:24:41.160Z,80.46
2022-10-18T16:29:36.768Z,80.63
2022-10-18T16:34:34.752Z,80.76
2022-10-18T16:39:34.333Z,80.98
2022-10-18T16:44:29.348Z,81.16
2022-10-18T16:49:28.396Z,81.30
2022-10-18T16:54:24.060Z,81.50
2022-10-18T16:59:26.521Z,81.75
2022-10-18T17:04:22.180Z,82.04
2022-10-18T17:09:16.924Z,82.31
2022-10-18T17:14:12.071Z,82.58
2022-10-18T17:19:11.602Z,82.94
2022-10-18T17:24:10.183Z,83.12
2022-10-18T17:29:29.722Z,82.59
2022-10-18T17:34:25.145Z,82.02
2022-10-18T17:39:20.157Z,81.76
2022-10-18T17:44:17.568Z,81.57
2022-10-18T17:49:14.900Z,81.54
2022-10-18T17:54:10.402Z,81.72
2022-10-18T17:59:09.678Z,81.90
2022-10-18T18:04:05.504Z,82.08
2022-10-18T18:09:07.190Z,82.17
2022-10-18T18:14:07.865Z,82.26
2022-10-18T18:19:09.491Z,82.32
2022-10-18T18:24:06.419Z,82.49
2022-10-18T18:34:00.182Z,82.60
2022-10-18T18:38:57.792Z,82.51
2022-10-18T18:43:58.448Z,82.61
2022-10-18T18:48:54.077Z,82.76
2022-10-18T18:53:50.199Z,83.00
2022-10-18T18:58:47.364Z,83.18
2022-10-18T19:03:42.855Z,83.45
2022-10-18T19:08:40.289Z,83.73
2022-10-18T19:13:36.381Z,83.95
2022-10-18T19:18:31.944Z,84.10
2022-10-18T19:23:27.835Z,84.21
2022-10-18T19:28:23.522Z,84.32
2022-10-18T19:33:35.397Z,84.32
2022-10-18T19:38:36.409Z,84.50
2022-10-18T19:43:31.860Z,84.68
2022-10-18T19:48:27.043Z,84.82
2022-10-18T19:53:22.306Z,84.90
2022-10-18T19:58:17.878Z,84.93
2022-10-18T20:03:15.495Z,84.99
2022-10-18T20:08:10.674Z,85.01
2022-10-18T20:13:05.622Z,85.12
2022-10-18T20:18:00.883Z,85.24
2022-10-18T20:22:56.099Z,85.35
2022-10-18T20:27:51.533Z,85.40
2022-10-18T20:32:46.981Z,85.44
2022-10-18T20:37:42.001Z,85.62
2022-10-18T20:42:36.672Z,85.71
2022-10-18T20:47:31.248Z,85.83
2022-10-18T20:52:26.584Z,85.96
2022-10-18T20:57:21.855Z,86.10
2022-10-18T21:02:18.114Z,86.18
2022-10-18T21:07:13.595Z,86.24
2022-10-18T21:12:08.944Z,86.32
2022-10-18T21:17:04.271Z,86.40
2022-10-18T21:21:59.788Z,86.48
2022-10-18T21:26:55.614Z,86.53
2022-10-18T21:31:54.735Z,86.61
2022-10-18T21:36:50.434Z,86.70
2022-10-18T21:41:46.322Z,86.75
2022-10-18T21:46:43.140Z,86.81
2022-10-18T21:51:38.111Z,86.86
2022-10-18T21:56:35.646Z,86.90
2022-10-18T22:01:34.280Z,86.80
2022-10-18T22:06:33.075Z,86.72
2022-10-18T22:11:31.608Z,86.66
2022-10-18T22:16:27.179Z,86.66
2022-10-18T22:21:22.606Z,86.61
2022-10-18T22:26:21.013Z,86.55
2022-10-18T22:31:19.403Z,86.51
2022-10-18T22:36:14.956Z,86.42
2022-10-18T22:41:12.697Z,86.41
2022-10-18T22:46:11.569Z,86.47
2022-10-18T22:51:07.945Z,86.51
2022-10-18T22:56:03.027Z,86.51
2022-10-18T23:01:04.402Z,86.52
2022-10-18T23:06:00.089Z,86.50
2022-10-18T23:10:57.221Z,86.50
2022-10-18T23:15:53.043Z,86.43
2022-10-18T23:20:48.335Z,86.49
2022-10-18T23:25:42.635Z,86.57
2022-10-18T23:30:39.732Z,86.66
2022-10-18T23:35:34.139Z,86.78
2022-10-18T23:40:28.695Z,86.75
2022-10-18T23:45:23.369Z,86.80
2022-10-18T23:50:18.919Z,86.61
2022-10-18T23:55:13.360Z,86.41
